Time;durP1;ratioP1;P1;durP2;ratioP2;P2;SDS_P1;SDS_P2;PMS_P1;PMS_P2;Temp;Humidity;BMP_temperature;BMP_pressure;BME280_temperature;BME280_humidity;BME280_pressure;Samples;Min_cycle;Max_cycle;Signal;HPM_P1;HPM_P2
2021/12/16 00:02:51;;;;;;;4.07;3.08;;;;;;;;;;5010292;28;20612;-63
2021/12/16 00:05:36;;;;;;;5.35;3.17;;;;;;;;;;5008979;28;20049;-64
2021/12/16 00:08:04;;;;;;;3.03;2.38;;;;;;;;;;5010684;28;20049;-63
2021/12/16 00:10:38;;;;;;;19.40;2.58;;;;;;;;;;5009891;28;20064;-63
2021/12/16 00:32:45;;;;;;;5.55;3.42;;;;;;;;;;5009727;28;20038;-62
2021/12/16 00:35:11;;;;;;;7.50;3.40;;;;;;;;;;5007566;28;20162;-59
2021/12/16 00:37:37;;;;;;;5.20;3.35;;;;;;;;;;5008179;28;20050;-63
2021/12/16 00:40:06;;;;;;;4.15;2.38;;;;;;;;;;5009338;28;20112;-63
2021/12/16 00:42:48;;;;;;;5.35;3.97;;;;;;;;;;5008449;28;20049;-63
2021/12/16 00:45:32;;;;;;;3.47;2.33;;;;;;;;;;5009091;28;20639;-65
2021/12/16 00:48:21;;;;;;;7.25;3.10;;;;;;;;;;5008636;28;20041;-64
2021/12/16 00:56:00;;;;;;;9.88;4.43;;;;;;;;;;5009928;28;20068;-62
2021/12/16 00:58:31;;;;;;;6.47;3.33;;;;;;;;;;5008772;28;20059;-63
2021/12/16 01:01:25;;;;;;;5.68;2.08;;;;;;;;;;5007999;28;20148;-62
2021/12/16 01:04:14;;;;;;;4.93;3.45;;;;;;;;;;5009556;28;20046;-63
2021/12/16 01:34:00;;;;;;;3.05;2.17;;;;;;;;;;4940433;28;20039;-62
2021/12/16 01:36:39;;;;;;;10.73;5.18;;;;;;;;;;5004369;28;20137;-62
2021/12/16 01:50:08;;;;;;;2.40;1.85;;;;;;;;;;5011457;28;20041;-63
2021/12/16 01:55:15;;;;;;;5.65;4.65;;;;;;;;;;5012847;28;20081;-64
2021/12/16 01:57:46;;;;;;;10.25;2.95;;;;;;;;;;5010767;28;20037;-63
2021/12/16 02:00:27;;;;;;;7.70;4.22;;;;;;;;;;4996965;28;20698;-62
2021/12/16 02:02:59;;;;;;;4.93;1.52;;;;;;;;;;5010508;28;20214;-62
2021/12/16 02:10:35;;;;;;;2.75;2.28;;;;;;;;;;5010451;28;20482;-60
2021/12/16 02:29:49;;;;;;;6.57;3.25;;;;;;;;;;5013306;28;20100;-62
2021/12/16 02:32:54;;;;;;;3.35;2.78;;;;;;;;;;5014836;28;20091;-64
2021/12/16 02:37:36;;;;;;;4.13;2.75;;;;;;;;;;4994422;28;20103;-62
2021/12/16 02:40:03;;;;;;;6.90;3.45;;;;;;;;;;4995560;28;20087;-64
2021/12/16 02:42:49;;;;;;;2.10;1.10;;;;;;;;;;5012491;28;20042;-65
2021/12/16 02:50:51;;;;;;;6.65;4.55;;;;;;;;;;5012638;28;20516;-63
2021/12/16 02:53:17;;;;;;;13.25;4.68;;;;;;;;;;5014301;28;20045;-62
2021/12/16 02:55:43;;;;;;;7.63;4.00;;;;;;;;;;5013321;28;20067;-61
2021/12/16 02:58:09;;;;;;;8.82;3.83;;;;;;;;;;5012568;28;20045;-64
2021/12/16 03:00:41;;;;;;;6.03;2.45;;;;;;;;;;5012503;28;20061;-62
2021/12/16 03:03:07;;;;;;;5.60;2.90;;;;;;;;;;4994221;28;20037;-60
2021/12/16 03:05:33;;;;;;;13.43;2.72;;;;;;;;;;4997382;28;20054;-65
2021/12/16 03:08:00;;;;;;;29.40;3.10;;;;;;;;;;5014522;28;20047;-62
2021/12/16 03:16:24;;;;;;;4.47;2.13;;;;;;;;;;4983365;28;20123;-62
2021/12/16 03:19:05;;;;;;;3.22;2.03;;;;;;;;;;4973369;28;20109;-65
2021/12/16 03:21:37;;;;;;;5.70;2.95;;;;;;;;;;4974883;28;20739;-62
2021/12/16 03:24:27;;;;;;;6.77;3.17;;;;;;;;;;4974150;28;20061;-59
2021/12/16 03:27:33;;;;;;;2.28;1.60;;;;;;;;;;4973424;28;20214;-62
2021/12/16 03:30:13;;;;;;;5.85;3.67;;;;;;;;;;4971077;28;20050;-60
2021/12/16 03:35:28;;;;;;;5.82;4.03;;;;;;;;;;4972808;28;20116;-61
2021/12/16 03:37:55;;;;;;;6.80;2.50;;;;;;;;;;4971185;28;20100;-62
2021/12/16 03:40:21;;;;;;;4.18;3.03;;;;;;;;;;4972990;28;20039;-63
2021/12/16 03:42:52;;;;;;;5.13;2.92;;;;;;;;;;4975424;28;20653;-63
2021/12/16 03:48:22;;;;;;;4.30;1.98;;;;;;;;;;4973364;28;20058;-63
2021/12/16 03:50:48;;;;;;;3.03;2.08;;;;;;;;;;5009569;28;20097;-64
2021/12/16 03:53:16;;;;;;;6.03;2.75;;;;;;;;;;5010924;28;20124;-64
2021/12/16 03:55:42;;;;;;;13.05;4.22;;;;;;;;;;5012245;28;20069;-63
2021/12/16 03:58:08;;;;;;;6.05;2.00;;;;;;;;;;5013798;28;20067;-64
2021/12/16 04:00:39;;;;;;;4.45;2.38;;;;;;;;;;4995638;28;20043;-64
2021/12/16 04:03:05;;;;;;;7.68;4.40;;;;;;;;;;5012233;28;20042;-64
2021/12/16 04:05:31;;;;;;;10.02;5.25;;;;;;;;;;5011797;28;20060;-64
2021/12/16 04:07:57;;;;;;;8.43;3.55;;;;;;;;;;5013597;28;20038;-64
2021/12/16 04:10:32;;;;;;;3.83;2.80;;;;;;;;;;5010182;28;20104;-63
2021/12/16 04:12:59;;;;;;;5.88;4.97;;;;;;;;;;5013286;28;20787;-63
2021/12/16 04:15:25;;;;;;;21.40;3.22;;;;;;;;;;5010315;28;20962;-62
2021/12/16 04:17:51;;;;;;;2.97;2.40;;;;;;;;;;5012152;28;20045;-62
2021/12/16 04:20:17;;;;;;;7.40;4.38;;;;;;;;;;5010860;28;20046;-63
2021/12/16 04:22:44;;;;;;;2.65;1.75;;;;;;;;;;5012570;28;20079;-63
2021/12/16 04:25:12;;;;;;;1.15;0.55;;;;;;;;;;5010056;28;20093;-64
2021/12/16 04:27:39;;;;;;;5.13;3.38;;;;;;;;;;5011653;28;20052;-65
2021/12/16 04:30:07;;;;;;;3.20;2.40;;;;;;;;;;5011019;28;20042;-63
2021/12/16 04:32:33;;;;;;;11.35;4.15;;;;;;;;;;5009880;28;20096;-61
2021/12/16 04:34:58;;;;;;;4.97;3.17;;;;;;;;;;5010997;28;20053;-63
2021/12/16 04:37:24;;;;;;;4.57;2.25;;;;;;;;;;5011115;28;20034;-62
2021/12/16 04:39:50;;;;;;;1.25;1.05;;;;;;;;;;5010468;28;20129;-62
2021/12/16 04:42:19;;;;;;;4.32;3.50;;;;;;;;;;5011092;28;20401;-63
2021/12/16 04:44:44;;;;;;;10.07;4.72;;;;;;;;;;5010434;28;20057;-61
2021/12/16 04:47:11;;;;;;;5.15;3.55;;;;;;;;;;5014103;28;20059;-63
2021/12/16 04:49:36;;;;;;;3.28;2.10;;;;;;;;;;5013930;28;20048;-61
2021/12/16 04:52:09;;;;;;;6.55;3.55;;;;;;;;;;5016004;28;20042;-60
2021/12/16 04:54:35;;;;;;;16.98;5.13;;;;;;;;;;5014731;28;20097;-63
2021/12/16 04:57:01;;;;;;;5.70;3.95;;;;;;;;;;5012558;28;20040;-62
2021/12/16 04:59:27;;;;;;;4.43;3.15;;;;;;;;;;5010956;28;20046;-62
2021/12/16 05:01:55;;;;;;;6.28;3.80;;;;;;;;;;5014265;28;20430;-60
2021/12/16 05:04:21;;;;;;;10.02;4.50;;;;;;;;;;5012185;28;20065;-62
2021/12/16 05:06:47;;;;;;;6.60;3.17;;;;;;;;;;5012842;28;20041;-62
2021/12/16 05:09:26;;;;;;;5.05;2.95;;;;;;;;;;5013426;28;20103;-63
2021/12/16 05:11:52;;;;;;;2.53;1.67;;;;;;;;;;5013101;28;20037;-62
2021/12/16 05:14:20;;;;;;;2.65;1.33;;;;;;;;;;5013802;28;20046;-61
2021/12/16 05:16:46;;;;;;;3.22;2.05;;;;;;;;;;5014539;28;20411;-62
2021/12/16 05:19:12;;;;;;;5.45;4.15;;;;;;;;;;5015566;28;20910;-62
2021/12/16 05:21:51;;;;;;;7.28;4.90;;;;;;;;;;5014352;28;20037;-64
2021/12/16 05:24:25;;;;;;;6.22;4.55;;;;;;;;;;5012953;28;20135;-61
2021/12/16 05:27:00;;;;;;;3.05;2.53;;;;;;;;;;5004659;28;20034;-63
2021/12/16 05:29:26;;;;;;;3.78;2.60;;;;;;;;;;5012371;28;20511;-62
2021/12/16 05:31:53;;;;;;;13.32;4.32;;;;;;;;;;5015672;28;20046;-61
2021/12/16 05:34:19;;;;;;;5.53;3.35;;;;;;;;;;5012383;28;20056;-62
2021/12/16 05:36:45;;;;;;;6.75;4.45;;;;;;;;;;5003717;28;20041;-61
2021/12/16 05:39:12;;;;;;;6.68;4.53;;;;;;;;;;4996561;28;20461;-62
2021/12/16 05:41:38;;;;;;;7.57;4.22;;;;;;;;;;5013894;28;20115;-63
2021/12/16 05:44:04;;;;;;;7.03;3.35;;;;;;;;;;5013908;28;20056;-62
2021/12/16 05:46:30;;;;;;;4.03;2.80;;;;;;;;;;5013335;28;20748;-62
2021/12/16 05:48:58;;;;;;;8.65;4.47;;;;;;;;;;5014203;28;20033;-62
2021/12/16 05:51:30;;;;;;;33.58;4.00;;;;;;;;;;5013283;28;20053;-61
2021/12/16 05:53:56;;;;;;;3.67;2.45;;;;;;;;;;5014333;28;20102;-60
2021/12/16 05:56:22;;;;;;;5.70;3.00;;;;;;;;;;5014803;28;20110;-60
2021/12/16 05:58:48;;;;;;;10.20;3.40;;;;;;;;;;5013714;28;20042;-62
2021/12/16 06:01:22;;;;;;;6.00;4.03;;;;;;;;;;5015498;28;20042;-61
2021/12/16 06:03:48;;;;;;;4.45;3.65;;;;;;;;;;5014056;28;20112;-62
2021/12/16 06:06:15;;;;;;;12.73;5.28;;;;;;;;;;5015069;28;20037;-61
2021/12/16 06:08:41;;;;;;;4.93;2.88;;;;;;;;;;5014727;28;20046;-64
2021/12/16 06:11:21;;;;;;;4.50;3.13;;;;;;;;;;5015082;28;20637;-61
2021/12/16 06:14:25;;;;;;;8.52;3.65;;;;;;;;;;5013729;28;20046;-61
2021/12/16 06:22:45;;;;;;;3.50;2.33;;;;;;;;;;5015139;28;20076;-61
2021/12/16 06:28:08;;;;;;;2.95;1.95;;;;;;;;;;4960890;28;20034;-61
2021/12/16 06:30:36;;;;;;;8.35;3.33;;;;;;;;;;4994484;28;20048;-60
2021/12/16 06:33:03;;;;;;;13.88;4.13;;;;;;;;;;5017497;28;20053;-61
2021/12/16 06:35:29;;;;;;;5.25;4.05;;;;;;;;;;5015036;28;20196;-60
2021/12/16 06:37:55;;;;;;;4.25;3.05;;;;;;;;;;5007786;28;20045;-60
2021/12/16 06:40:21;;;;;;;6.68;4.15;;;;;;;;;;5018247;28;20049;-60
2021/12/16 06:42:49;;;;;;;5.45;3.33;;;;;;;;;;5015410;28;20042;-61
2021/12/16 06:45:21;;;;;;;4.75;3.30;;;;;;;;;;5013850;28;20053;-60
2021/12/16 06:47:53;;;;;;;4.32;2.78;;;;;;;;;;5011454;28;20716;-61
2021/12/16 06:50:37;;;;;;;10.68;4.43;;;;;;;;;;5012044;28;20045;-61
2021/12/16 06:53:05;;;;;;;7.10;3.85;;;;;;;;;;4995144;28;20034;-61
2021/12/16 06:55:44;;;;;;;13.25;2.70;;;;;;;;;;5009305;28;20090;-62
2021/12/16 06:58:28;;;;;;;8.48;3.92;;;;;;;;;;5010943;28;20042;-62
2021/12/16 07:01:05;;;;;;;4.72;3.20;;;;;;;;;;5009418;28;20087;-61
2021/12/16 07:03:44;;;;;;;9.27;3.88;;;;;;;;;;5010437;28;20486;-62
2021/12/16 07:06:10;;;;;;;8.40;3.72;;;;;;;;;;5011316;28;20497;-62
2021/12/16 07:08:36;;;;;;;10.52;3.05;;;;;;;;;;4995944;28;20041;-62
2021/12/16 07:11:03;;;;;;;8.90;3.83;;;;;;;;;;5011090;28;20088;-61
2021/12/16 07:13:35;;;;;;;7.60;4.50;;;;;;;;;;5010255;28;20034;-61
2021/12/16 07:16:00;;;;;;;6.53;2.95;;;;;;;;;;5012078;28;20044;-63
2021/12/16 07:18:26;;;;;;;3.75;2.45;;;;;;;;;;5009082;28;20152;-62
2021/12/16 07:20:52;;;;;;;16.83;3.95;;;;;;;;;;5010406;28;20050;-63
2021/12/16 07:23:18;;;;;;;5.00;3.50;;;;;;;;;;5009523;28;20041;-62
2021/12/16 07:25:44;;;;;;;3.92;2.45;;;;;;;;;;5009521;28;20060;-62
2021/12/16 07:28:10;;;;;;;13.85;4.20;;;;;;;;;;5011344;28;20045;-63
2021/12/16 07:30:37;;;;;;;9.52;4.68;;;;;;;;;;5009623;28;20052;-63
2021/12/16 07:33:04;;;;;;;11.02;5.90;;;;;;;;;;5010909;28;20409;-62
2021/12/16 07:35:30;;;;;;;5.85;3.97;;;;;;;;;;5010306;28;20452;-63
2021/12/16 07:37:56;;;;;;;21.33;3.88;;;;;;;;;;5010049;28;20094;-62
2021/12/16 07:40:25;;;;;;;2.88;1.98;;;;;;;;;;4988999;28;20042;-62
2021/12/16 07:45:34;;;;;;;5.05;2.97;;;;;;;;;;5009249;28;20057;-62
2021/12/16 07:48:00;;;;;;;3.53;2.63;;;;;;;;;;5010371;28;20060;-61
2021/12/16 07:50:26;;;;;;;6.32;3.85;;;;;;;;;;5008990;28;20092;-62
2021/12/16 07:52:52;;;;;;;3.45;2.47;;;;;;;;;;5000491;28;20657;-61
2021/12/16 07:55:18;;;;;;;7.20;3.67;;;;;;;;;;5009313;28;20048;-62
2021/12/16 07:57:44;;;;;;;5.85;3.25;;;;;;;;;;4994002;28;20041;-63
2021/12/16 08:00:12;;;;;;;5.10;3.65;;;;;;;;;;5009723;28;20079;-61
2021/12/16 08:02:39;;;;;;;3.78;2.60;;;;;;;;;;5009352;28;20137;-63
2021/12/16 08:05:06;;;;;;;7.15;3.88;;;;;;;;;;5011979;28;20084;-62
2021/12/16 08:07:35;;;;;;;9.95;4.07;;;;;;;;;;5010543;28;20581;-62
2021/12/16 08:10:01;;;;;;;6.88;3.08;;;;;;;;;;5009232;28;20507;-62
2021/12/16 08:12:27;;;;;;;6.88;2.88;;;;;;;;;;5009927;28;20137;-61
2021/12/16 08:14:53;;;;;;;4.10;2.05;;;;;;;;;;5009332;28;20100;-62
2021/12/16 08:17:19;;;;;;;3.80;2.50;;;;;;;;;;5009518;28;20100;-61
2021/12/16 08:19:45;;;;;;;5.68;2.75;;;;;;;;;;5009085;28;20049;-62
2021/12/16 08:22:12;;;;;;;4.03;2.75;;;;;;;;;;5009023;28;20949;-62
2021/12/16 08:24:38;;;;;;;7.90;3.65;;;;;;;;;;5008890;28;20061;-62
2021/12/16 08:27:04;;;;;;;4.93;3.00;;;;;;;;;;5009713;28;20501;-61
2021/12/16 08:29:30;;;;;;;5.20;2.88;;;;;;;;;;5009340;28;20050;-63
2021/12/16 08:31:56;;;;;;;5.05;3.58;;;;;;;;;;5010312;28;20082;-59
2021/12/16 08:34:23;;;;;;;6.53;3.13;;;;;;;;;;5010604;28;20042;-61
2021/12/16 08:36:49;;;;;;;3.33;2.30;;;;;;;;;;5010761;28;20076;-62
2021/12/16 08:39:15;;;;;;;12.60;5.15;;;;;;;;;;5009182;28;20057;-61
2021/12/16 08:41:43;;;;;;;3.75;2.42;;;;;;;;;;5009629;28;20041;-61
2021/12/16 08:44:09;;;;;;;3.42;2.03;;;;;;;;;;5011061;28;20045;-61
2021/12/16 08:46:37;;;;;;;10.05;2.80;;;;;;;;;;4994520;28;20088;-61
2021/12/16 08:49:03;;;;;;;9.70;2.63;;;;;;;;;;5011490;28;20069;-62
2021/12/16 08:51:32;;;;;;;4.88;2.63;;;;;;;;;;5008743;28;20142;-62
2021/12/16 08:53:58;;;;;;;7.55;4.28;;;;;;;;;;5009723;28;20037;-61
2021/12/16 08:56:26;;;;;;;3.78;2.25;;;;;;;;;;5009046;28;20422;-62
2021/12/16 08:58:52;;;;;;;3.15;2.28;;;;;;;;;;5010088;28;20083;-62
2021/12/16 09:01:22;;;;;;;4.68;2.67;;;;;;;;;;5009996;28;20120;-62
2021/12/16 09:03:48;;;;;;;6.10;3.72;;;;;;;;;;5011035;28;20061;-61
2021/12/16 09:06:14;;;;;;;13.48;5.20;;;;;;;;;;5009150;28;20064;-62
2021/12/16 09:08:40;;;;;;;3.58;2.88;;;;;;;;;;4992364;28;20621;-62
2021/12/16 09:11:08;;;;;;;12.55;4.72;;;;;;;;;;4996288;28;20125;-62
2021/12/16 09:13:38;;;;;;;7.35;4.75;;;;;;;;;;5010283;28;20070;-63
2021/12/16 09:16:05;;;;;;;6.88;4.38;;;;;;;;;;5012873;28;20072;-63
2021/12/16 09:18:32;;;;;;;3.38;2.50;;;;;;;;;;5010223;28;20045;-63
2021/12/16 09:20:59;;;;;;;7.78;4.82;;;;;;;;;;5010017;28;20053;-63
2021/12/16 09:23:25;;;;;;;20.02;4.72;;;;;;;;;;5010803;28;20048;-63
2021/12/16 09:25:51;;;;;;;10.90;3.47;;;;;;;;;;5010240;28;20041;-62
2021/12/16 09:28:19;;;;;;;5.55;3.75;;;;;;;;;;5010487;28;20041;-63
2021/12/16 09:30:45;;;;;;;12.77;4.80;;;;;;;;;;5008861;28;20501;-63
2021/12/16 09:33:14;;;;;;;13.38;5.03;;;;;;;;;;5014134;28;20065;-63
2021/12/16 09:35:42;;;;;;;5.93;4.05;;;;;;;;;;5011226;28;20046;-62
2021/12/16 09:38:09;;;;;;;10.15;5.38;;;;;;;;;;5011936;28;20050;-63
2021/12/16 09:40:40;;;;;;;11.68;4.55;;;;;;;;;;5012573;28;20034;-60
2021/12/16 09:43:06;;;;;;;7.32;2.97;;;;;;;;;;5013078;28;20060;-61
2021/12/16 09:45:32;;;;;;;40.20;3.15;;;;;;;;;;5012447;28;20068;-60
2021/12/16 09:47:58;;;;;;;9.45;5.20;;;;;;;;;;5013370;28;20041;-62
2021/12/16 09:50:26;;;;;;;5.75;3.97;;;;;;;;;;5012001;28;20088;-62
2021/12/16 09:52:52;;;;;;;6.20;3.97;;;;;;;;;;5012645;28;20048;-60
2021/12/16 09:55:19;;;;;;;4.85;3.28;;;;;;;;;;5012532;28;20045;-62
2021/12/16 09:57:45;;;;;;;4.43;2.80;;;;;;;;;;5012340;28;20050;-59
2021/12/16 10:00:12;;;;;;;10.52;2.15;;;;;;;;;;5012982;28;20454;-61
2021/12/16 10:02:38;;;;;;;5.93;3.35;;;;;;;;;;4994349;28;20045;-63
2021/12/16 10:05:05;;;;;;;5.50;3.53;;;;;;;;;;4998422;28;20185;-61
2021/12/16 10:07:34;;;;;;;8.40;4.80;;;;;;;;;;5011233;28;20080;-61
2021/12/16 10:10:00;;;;;;;5.10;3.72;;;;;;;;;;5011461;28;20038;-62
2021/12/16 10:12:32;;;;;;;9.85;4.95;;;;;;;;;;5012937;28;20046;-60
2021/12/16 10:15:04;;;;;;;4.55;3.55;;;;;;;;;;5013608;28;20057;-61
2021/12/16 10:17:35;;;;;;;2.03;1.45;;;;;;;;;;5013001;28;20140;-60
2021/12/16 10:20:09;;;;;;;4.00;2.42;;;;;;;;;;4992684;28;20041;-60
2021/12/16 10:22:41;;;;;;;9.18;3.92;;;;;;;;;;4995211;28;20924;-61
2021/12/16 10:25:16;;;;;;;5.07;3.00;;;;;;;;;;5014215;28;20057;-61
2021/12/16 10:27:52;;;;;;;4.45;3.33;;;;;;;;;;5013920;28;20063;-61
2021/12/16 10:30:18;;;;;;;6.80;4.22;;;;;;;;;;5010367;28;20501;-60
2021/12/16 10:32:46;;;;;;;5.65;2.92;;;;;;;;;;5015230;28;20049;-62
2021/12/16 10:35:14;;;;;;;3.95;2.58;;;;;;;;;;5013168;28;20136;-61
2021/12/16 10:37:42;;;;;;;2.65;1.90;;;;;;;;;;4993912;28;20164;-61
2021/12/16 10:40:26;;;;;;;3.40;2.25;;;;;;;;;;5012723;28;20049;-62
2021/12/16 10:42:51;;;;;;;;;;;;;;;;;;5012246;28;20497;-61
2021/12/16 10:45:36;;;;;;;1.75;1.02;;;;;;;;;;5011666;28;19936;-62
2021/12/16 10:48:19;;;;;;;3.55;1.83;;;;;;;;;;5011198;28;20060;-61
2021/12/16 10:50:54;;;;;;;5.32;3.95;;;;;;;;;;5011028;28;20125;-62
2021/12/16 10:53:38;;;;;;;7.57;3.22;;;;;;;;;;5012225;28;20050;-61
2021/12/16 10:56:04;;;;;;;2.97;2.05;;;;;;;;;;5010254;28;20060;-63
2021/12/16 10:58:51;;;;;;;8.00;3.35;;;;;;;;;;5011020;28;20676;-61
2021/12/16 11:01:30;;;;;;;2.42;1.35;;;;;;;;;;5012608;28;20048;-62
2021/12/16 11:03:56;;;;;;;4.43;3.42;;;;;;;;;;5013096;28;20033;-61
2021/12/16 11:06:32;;;;;;;9.05;4.15;;;;;;;;;;5010824;28;20099;-61
2021/12/16 11:09:17;;;;;;;10.40;4.97;;;;;;;;;;4997103;28;20045;-61
2021/12/16 11:11:43;;;;;;;2.42;1.33;;;;;;;;;;5011270;28;20045;-62
2021/12/16 11:14:09;;;;;;;5.15;3.08;;;;;;;;;;5010446;28;20052;-61
2021/12/16 11:16:36;;;;;;;5.22;3.42;;;;;;;;;;5009802;28;20069;-59
2021/12/16 11:19:02;;;;;;;4.18;2.58;;;;;;;;;;5011380;28;20037;-62
2021/12/16 11:21:32;;;;;;;5.18;3.75;;;;;;;;;;5011004;28;20056;-61
2021/12/16 11:23:58;;;;;;;4.82;3.47;;;;;;;;;;5001422;28;20105;-62
2021/12/16 11:26:29;;;;;;;5.07;4.43;;;;;;;;;;5011165;28;20045;-62
2021/12/16 11:28:55;;;;;;;4.75;3.08;;;;;;;;;;5011161;28;20167;-61
2021/12/16 11:31:28;;;;;;;4.78;3.58;;;;;;;;;;5011393;28;20103;-63
2021/12/16 11:33:58;;;;;;;3.85;2.35;;;;;;;;;;4993432;28;20138;-61
2021/12/16 11:36:26;;;;;;;7.45;4.60;;;;;;;;;;5011379;28;20092;-62
2021/12/16 11:39:01;;;;;;;4.72;3.72;;;;;;;;;;5011741;28;20480;-61
2021/12/16 11:41:36;;;;;;;4.20;3.10;;;;;;;;;;5010362;28;20451;-62
2021/12/16 11:44:17;;;;;;;4.10;2.50;;;;;;;;;;5011895;28;20072;-61
2021/12/16 11:46:46;;;;;;;6.30;3.63;;;;;;;;;;5011056;28;20074;-63
2021/12/16 11:49:21;;;;;;;5.93;4.40;;;;;;;;;;5011437;28;20138;-62
2021/12/16 11:51:52;;;;;;;11.75;5.05;;;;;;;;;;5011285;28;20053;-62
2021/12/16 11:54:23;;;;;;;4.97;2.70;;;;;;;;;;5010863;28;20041;-62
2021/12/16 11:56:58;;;;;;;6.00;3.45;;;;;;;;;;5012965;28;20612;-59
2021/12/16 11:59:29;;;;;;;1.63;1.02;;;;;;;;;;5010173;28;20176;-60
2021/12/16 12:01:55;;;;;;;7.20;3.55;;;;;;;;;;5010828;28;20042;-61
2021/12/16 12:04:27;;;;;;;7.70;3.63;;;;;;;;;;5010637;28;20054;-61
2021/12/16 12:06:53;;;;;;;4.80;2.80;;;;;;;;;;5012959;28;20056;-63
2021/12/16 12:09:20;;;;;;;6.75;4.20;;;;;;;;;;5014231;28;20041;-61
2021/12/16 12:11:48;;;;;;;9.50;5.40;;;;;;;;;;5013972;28;20172;-61
2021/12/16 12:14:17;;;;;;;5.30;3.55;;;;;;;;;;5012576;28;20133;-62
2021/12/16 12:16:45;;;;;;;2.35;1.65;;;;;;;;;;5012001;28;20041;-61
2021/12/16 12:19:13;;;;;;;3.55;2.40;;;;;;;;;;5010364;28;20037;-63
2021/12/16 12:21:44;;;;;;;6.57;4.75;;;;;;;;;;4992070;28;20700;-61
2021/12/16 12:24:21;;;;;;;3.40;2.95;;;;;;;;;;4993304;28;20802;-63
2021/12/16 12:26:47;;;;;;;13.18;3.47;;;;;;;;;;5009471;28;20049;-62
2021/12/16 12:29:15;;;;;;;4.88;3.40;;;;;;;;;;5011185;28;20038;-64
2021/12/16 12:31:45;;;;;;;7.38;1.75;;;;;;;;;;5008229;28;20049;-62
2021/12/16 12:34:13;;;;;;;9.00;2.85;;;;;;;;;;5010768;28;20490;-62
2021/12/16 12:36:39;;;;;;;12.82;4.57;;;;;;;;;;5009078;28;20498;-62
2021/12/16 12:39:06;;;;;;;4.03;2.78;;;;;;;;;;5008682;28;21026;-60
2021/12/16 12:41:32;;;;;;;4.75;2.72;;;;;;;;;;5008907;28;20110;-62
2021/12/16 12:43:58;;;;;;;8.73;3.13;;;;;;;;;;5012419;28;21069;-62
2021/12/16 12:46:25;;;;;;;10.88;3.58;;;;;;;;;;5008885;28;20552;-63
2021/12/16 12:48:52;;;;;;;17.40;3.83;;;;;;;;;;5010636;28;21138;-62
2021/12/16 12:51:18;;;;;;;14.90;3.95;;;;;;;;;;5007374;28;20042;-61
2021/12/16 12:53:49;;;;;;;4.38;3.30;;;;;;;;;;5010467;28;20045;-62
2021/12/16 12:56:22;;;;;;;23.75;2.42;;;;;;;;;;5008837;28;20041;-62
2021/12/16 12:58:53;;;;;;;3.50;1.98;;;;;;;;;;5007831;28;20044;-62
2021/12/16 13:01:31;;;;;;;3.45;2.00;;;;;;;;;;5008377;28;20125;-62
2021/12/16 13:04:01;;;;;;;8.93;3.33;;;;;;;;;;5008942;28;20448;-63
2021/12/16 13:06:27;;;;;;;5.68;2.80;;;;;;;;;;5009789;28;20057;-61
2021/12/16 13:08:53;;;;;;;8.45;5.03;;;;;;;;;;5014410;28;20103;-63
2021/12/16 13:11:29;;;;;;;4.47;2.50;;;;;;;;;;5012090;28;20124;-60
2021/12/16 13:14:09;;;;;;;9.18;3.90;;;;;;;;;;5012925;28;20045;-60
2021/12/16 13:25:52;;;;;;;5.60;3.65;;;;;;;;;;5019041;28;20077;-63
2021/12/16 13:28:04;;;;;;;4.40;2.20;;;;;;;;;;5011803;28;20057;-57
2021/12/16 13:30:32;;;;;;;7.88;2.75;;;;;;;;;;5010304;28;20514;-59
2021/12/16 13:33:17;;;;;;;3.78;2.28;;;;;;;;;;5010649;28;20045;-58
2021/12/16 13:35:49;;;;;;;3.35;1.60;;;;;;;;;;4992200;28;20398;-59
2021/12/16 13:38:15;;;;;;;20.10;5.90;;;;;;;;;;5010489;28;20042;-59
2021/12/16 13:40:42;;;;;;;5.55;3.15;;;;;;;;;;5010150;28;20417;-59
2021/12/16 13:43:15;;;;;;;2.97;2.00;;;;;;;;;;5011727;28;20044;-60
2021/12/16 13:45:55;;;;;;;25.98;4.40;;;;;;;;;;5009478;28;20053;-60
2021/12/16 13:58:10;;;;;;;12.63;5.90;;;;;;;;;;5009731;28;20814;-59
2021/12/16 14:02:37;;;;;;;2.88;1.88;;;;;;;;;;5009590;28;20505;-63
2021/12/16 14:07:56;;;;;;;3.08;1.80;;;;;;;;;;5009327;28;20042;-59
2021/12/16 14:10:34;;;;;;;8.07;2.95;;;;;;;;;;5009186;28;20117;-57
2021/12/16 14:16:14;;;;;;;5.78;1.50;;;;;;;;;;5007920;28;20049;-64
2021/12/16 14:24:46;;;;;;;6.85;3.42;;;;;;;;;;5009233;28;20065;-57
2021/12/16 14:36:01;;;;;;;7.20;3.85;;;;;;;;;;5009671;28;20037;-57
2021/12/16 14:38:40;;;;;;;5.57;2.25;;;;;;;;;;5009828;28;20030;-56
2021/12/16 14:41:09;;;;;;;4.90;3.50;;;;;;;;;;5009630;28;21960;-58
2021/12/16 14:43:51;;;;;;;4.15;1.90;;;;;;;;;;5010612;28;20072;-60
2021/12/16 14:46:27;;;;;;;1.58;1.45;;;;;;;;;;5010254;28;20088;-62
2021/12/16 14:48:53;;;;;;;10.25;5.35;;;;;;;;;;5009389;28;20042;-58
2021/12/16 14:51:19;;;;;;;3.47;2.17;;;;;;;;;;5009777;28;20103;-61
2021/12/16 14:53:47;;;;;;;2.78;1.70;;;;;;;;;;4989435;28;20474;-60
2021/12/16 14:56:12;;;;;;;22.95;3.80;;;;;;;;;;4992221;28;20056;-60
2021/12/16 14:58:40;;;;;;;2.83;1.85;;;;;;;;;;5010201;28;20038;-58
2021/12/16 15:01:12;;;;;;;4.32;2.38;;;;;;;;;;5012114;28;20069;-58
2021/12/16 15:03:41;;;;;;;5.07;3.45;;;;;;;;;;5009583;28;20082;-58
2021/12/16 15:06:08;;;;;;;5.82;2.40;;;;;;;;;;5011318;28;22133;-58
2021/12/16 15:08:50;;;;;;;2.33;1.73;;;;;;;;;;5010681;28;20037;-59
2021/12/16 15:11:26;;;;;;;4.75;2.33;;;;;;;;;;5011117;28;20041;-60
2021/12/16 15:13:53;;;;;;;14.75;3.70;;;;;;;;;;4977155;28;20037;-59
2021/12/16 15:35:54;;;;;;;1.77;1.48;;;;;;;;;;5008189;28;20044;-58
2021/12/16 15:38:41;;;;;;;3.60;2.55;;;;;;;;;;5008971;28;20049;-58
2021/12/16 15:43:45;;;;;;;4.65;2.65;;;;;;;;;;5008642;28;20042;-59
2021/12/16 15:46:11;;;;;;;8.20;3.55;;;;;;;;;;5008975;28;20135;-59
2021/12/16 15:48:37;;;;;;;4.28;2.78;;;;;;;;;;5006610;28;20124;-59
2021/12/16 15:51:03;;;;;;;5.55;2.55;;;;;;;;;;5007824;28;20556;-59
2021/12/16 15:53:34;;;;;;;3.72;2.78;;;;;;;;;;5005421;28;20037;-57
2021/12/16 15:56:05;;;;;;;8.05;4.18;;;;;;;;;;5006712;28;20041;-58
2021/12/16 15:58:32;;;;;;;8.10;3.30;;;;;;;;;;5007912;28;20053;-59
2021/12/16 16:01:04;;;;;;;6.75;3.05;;;;;;;;;;4990919;28;20080;-58
2021/12/16 16:03:30;;;;;;;5.68;3.78;;;;;;;;;;5006234;28;20172;-59
2021/12/16 16:05:58;;;;;;;2.97;1.77;;;;;;;;;;5006444;28;20685;-58
2021/12/16 16:08:25;;;;;;;5.75;3.28;;;;;;;;;;5006445;28;20037;-58
2021/12/16 16:10:54;;;;;;;8.35;2.22;;;;;;;;;;5008506;28;21802;-59
2021/12/16 16:13:21;;;;;;;6.18;3.60;;;;;;;;;;4991340;28;20049;-58
2021/12/16 16:15:49;;;;;;;4.72;2.55;;;;;;;;;;5006931;28;20041;-58
2021/12/16 16:18:33;;;;;;;6.55;3.53;;;;;;;;;;5006882;28;20142;-58
2021/12/16 16:21:11;;;;;;;2.17;1.58;;;;;;;;;;5006462;28;20033;-58
2021/12/16 16:23:38;;;;;;;1.85;1.20;;;;;;;;;;5005380;28;20053;-59
2021/12/16 16:26:06;;;;;;;7.93;4.13;;;;;;;;;;5006627;28;20061;-59
2021/12/16 16:28:32;;;;;;;3.10;1.70;;;;;;;;;;4988707;28;20037;-58
2021/12/16 16:30:59;;;;;;;5.57;3.20;;;;;;;;;;5008087;28;20042;-59
2021/12/16 16:33:26;;;;;;;3.80;2.13;;;;;;;;;;5007524;28;20038;-58
2021/12/16 16:36:01;;;;;;;8.77;2.88;;;;;;;;;;4992705;28;20040;-58
2021/12/16 16:38:27;;;;;;;3.75;2.58;;;;;;;;;;4991706;28;20142;-57
2021/12/16 16:40:54;;;;;;;4.63;2.65;;;;;;;;;;4992698;28;20097;-58
2021/12/16 16:43:23;;;;;;;8.32;3.60;;;;;;;;;;5010412;28;20061;-59
2021/12/16 16:45:54;;;;;;;8.00;3.58;;;;;;;;;;4940747;28;2445309;-59
2021/12/16 16:48:39;;;;;;;3.40;2.42;;;;;;;;;;4992986;28;20052;-58
2021/12/16 16:51:09;;;;;;;4.60;2.72;;;;;;;;;;5012791;28;20127;-59
2021/12/16 16:53:46;;;;;;;4.25;2.58;;;;;;;;;;5010190;28;20049;-58
2021/12/16 16:56:12;;;;;;;8.30;4.13;;;;;;;;;;5012298;28;20041;-59
2021/12/16 16:58:38;;;;;;;5.75;3.50;;;;;;;;;;5014318;28;20512;-60
2021/12/16 17:01:04;;;;;;;8.65;4.60;;;;;;;;;;4997903;28;21121;-57
2021/12/16 17:03:31;;;;;;;4.68;2.67;;;;;;;;;;5010551;28;20042;-58
2021/12/16 17:05:59;;;;;;;7.35;2.95;;;;;;;;;;5011902;28;20053;-57
2021/12/16 17:08:33;;;;;;;7.95;4.20;;;;;;;;;;5012133;28;20045;-59
2021/12/16 17:11:02;;;;;;;3.92;2.40;;;;;;;;;;5014160;28;20061;-59
2021/12/16 17:13:57;;;;;;;4.55;2.78;;;;;;;;;;5011405;28;20101;-60
2021/12/16 17:19:16;;;;;;;2.58;1.88;;;;;;;;;;4996629;28;20199;-59
2021/12/16 17:21:47;;;;;;;4.80;2.67;;;;;;;;;;5011470;28;20038;-58
2021/12/16 17:24:18;;;;;;;8.25;3.85;;;;;;;;;;5012194;28;20033;-59
2021/12/16 17:26:48;;;;;;;3.47;2.33;;;;;;;;;;5013108;28;20045;-58
2021/12/16 17:29:19;;;;;;;4.72;3.13;;;;;;;;;;5014421;28;20040;-60
2021/12/16 17:31:47;;;;;;;6.95;3.65;;;;;;;;;;5015188;28;20041;-59
2021/12/16 17:34:22;;;;;;;5.55;2.50;;;;;;;;;;4993795;28;20045;-58
2021/12/16 17:36:53;;;;;;;4.90;2.85;;;;;;;;;;5012977;28;20042;-58
2021/12/16 17:39:20;;;;;;;3.90;2.70;;;;;;;;;;5011496;28;20040;-59
2021/12/16 17:41:53;;;;;;;12.75;3.83;;;;;;;;;;5012357;28;20037;-59
2021/12/16 17:44:19;;;;;;;11.05;5.22;;;;;;;;;;5012572;28;20050;-59
2021/12/16 17:46:50;;;;;;;7.75;3.50;;;;;;;;;;5010771;28;20108;-60
2021/12/16 17:49:16;;;;;;;5.47;3.50;;;;;;;;;;5011200;28;20056;-59
2021/12/16 17:51:42;;;;;;;5.85;3.55;;;;;;;;;;5009539;28;20517;-59
2021/12/16 17:54:09;;;;;;;5.07;3.17;;;;;;;;;;5009800;28;20655;-60
2021/12/16 17:56:35;;;;;;;3.08;1.45;;;;;;;;;;4992628;28;20053;-59
2021/12/16 17:59:04;;;;;;;7.50;4.18;;;;;;;;;;4998504;28;20117;-59
2021/12/16 18:01:38;;;;;;;4.45;2.03;;;;;;;;;;5009790;28;20479;-58
2021/12/16 18:04:14;;;;;;;4.55;2.30;;;;;;;;;;4990907;28;20037;-59